ADDS METAR Data INFO
IDs: Format: Raw Decoded Include TAF

Data at: 0157 UTC 19 Jul 2018

KBRO 190153Z 15011G20KT 10SM CLR 29/24 A2993 RMK AO2 SLP132 T02890244
KBRO 190053Z 15017KT 10SM CLR 31/24 A2991 RMK AO2 SLP128 T03060239
KBRO 182353Z 15016G24KT 10SM CLR 32/24 A2991 RMK AO2 SLP127 T03220239 10372 20322 56011
KBRO 182253Z 15017G25KT 10SM CLR 34/23 A2992 RMK AO2 PK WND 16027/2217 SLP129 T03390233
KBRO 182153Z 14015G25KT 10SM CLR 34/24 A2993 RMK AO2 SLP132 T03440239
KBRO 182053Z 15017G27KT 10SM CLR 36/22 A2994 RMK AO2 PK WND 15027/2047 SLP138 T03560222 56016
KBRO 181953Z 18018G24KT 10SM CLR 37/21 A2995 RMK AO2 SLP141 T03670211
KBRO 181853Z 18014G24KT 10SM CLR 37/20 A2996 RMK AO2 SLP145 T03670200
KBRO 181753Z 16019KT 10SM CLR 36/22 A2999 RMK AO2 SLP154 T03610222 10361 20267 58013
KBRO 181653Z 17018G25KT 10SM CLR 35/23 A3000 RMK AO2 SLP159 T03500228
KBRO 181553Z 18016KT 10SM CLR 33/24 A3001 RMK AO2 SLP162 T03330239
KBRO 181453Z 18015KT 10SM CLR 31/24 A3003 RMK AO2 SLP166 T03110244 50000
KBRO 181353Z 17013KT 10SM CLR 30/26 A3003 RMK AO2 SLP168 T03000261
KBRO 181253Z 15009KT 10SM CLR 28/26 A3003 RMK AO2 SLP167 T02780261
KBRO 181153Z 13006KT 10SM CLR 27/26 A3003 RMK AO2 SLP166 T02670256 10278 20256 53006
KBRO 181053Z 15006KT 10SM FEW017 FEW023 SCT028 26/26 A3001 RMK AO2 SLP160 T02610256
KBRO 181041Z AUTO 14005KT 10SM SCT022 26/25 A3001 RMK AO2 T02610250
KBRO 181025Z AUTO 15004KT 10SM BKN020 26/25 A3001 RMK AO2 T02610250
KBRO 181000Z AUTO 14005KT 10SM SCT022 26/25 A3001 RMK AO2 T02610250
KBRO 180953Z AUTO 14005KT 10SM BKN022 26/25 A3001 RMK AO2 SLP160 T02610250
KBRO 180943Z AUTO 14004KT 10SM BKN022 26/25 A3001 RMK AO2 T02610250
KBRO 180853Z AUTO 15005KT 10SM CLR 26/25 A3001 RMK AO2 SLP160 T02610250 56009
KBRO 180753Z AUTO 16004KT 10SM SCT020 27/25 A3002 RMK AO2 SLP163 T02670250
KBRO 180653Z AUTO 17008KT 10SM CLR 27/26 A3002 RMK AO2 SLP164 T02720256
KBRO 180553Z AUTO 17007KT 10SM FEW019 28/26 A3004 RMK AO2 SLP169 T02780256 10328 20278 403610250 51008
KBRO 180453Z AUTO 17010KT 10SM CLR 28/26 A3003 RMK AO2 SLP168 T02830256
KBRO 180353Z 15008KT 10SM CLR 28/26 A3002 RMK AO2 SLP165 T02830256
KBRO 180253Z 14009KT 10SM CLR 29/25 A3001 RMK AO2 SLP161 T02890250 51004
KBRO 180153Z 15012KT 10SM CLR 29/25 A3001 RMK AO2 SLP161 T02940250
KBRO 180053Z 15013KT 10SM CLR 31/24 A3000 RMK AO2 SLP158 T03110244
KBRO 172353Z 15016KT 10SM CLR 33/24 A3000 RMK AO2 SLP157 T03280244 10361 20328 56005
KBRO 172253Z 13016G21KT 10SM CLR 34/24 A3000 RMK AO2 SLP157 T03390239
KBRO 172153Z 13015KT 10SM CLR 34/24 A3001 RMK AO2 SLP160 T03440239
KBRO 172053Z 16016G26KT 10SM SCT047 36/24 A3001 RMK AO2 PK WND 16026/2047 SLP162 T03560239 58012
KBRO 171953Z 15013KT 10SM FEW050 36/24 A3003 RMK AO2 SLP167 T03560244
KBRO 171853Z 16014G21KT 10SM FEW042 SCT055 36/24 A3003 RMK AO2 SLP169 T03560244
KBRO 171753Z 14011G22KT 10SM SCT044 SCT050 35/24 A3005 RMK AO2 SLP173 T03500239 10356 20256 56005
KBRO 171653Z 16012G19KT 10SM FEW039 34/24 A3005 RMK AO2 SLP175 T03440239
KBRO 171553Z 18013KT 10SM FEW032 33/24 A3005 RMK AO2 SLP174 T03330244
KBRO 171453Z 17012KT 10SM FEW025 32/25 A3006 RMK AO2 SLP179 T03170250 51008